Time;durP1;ratioP1;P1;durP2;ratioP2;P2;SDS_P1;SDS_P2;PMS_P1;PMS_P2;Temp;Humidity;BMP_temperature;BMP_pressure;BME280_temperature;BME280_humidity;BME280_pressure;Samples;Min_cycle;Max_cycle;Signal;HPM_P1;HPM_P2
2023/01/31 00:02:30;;;;;;;;;;;19.90;59.80;;;;;;6105061;29;19983;-58
2023/01/31 00:05:32;;;;;;;;;;;20.20;60.00;;;;;;6105512;29;19934;-58
2023/01/31 00:08:34;;;;;;;;;;;20.50;59.50;;;;;;6118652;29;20340;-57
2023/01/31 00:11:36;;;;;;;;;;;20.20;58.20;;;;;;6104951;29;19927;-58
2023/01/31 00:14:37;;;;;;;;;;;21.00;59.50;;;;;;6105567;29;20347;-57
2023/01/31 00:17:39;;;;;;;;;;;20.00;58.80;;;;;;6105006;29;19931;-57
2023/01/31 00:20:41;;;;;;;;;;;20.50;59.30;;;;;;6104635;29;19933;-58
2023/01/31 00:23:43;;;;;;;;;;;20.40;59.70;;;;;;6104899;29;19934;-58
2023/01/31 00:26:44;;;;;;;;;;;20.00;59.10;;;;;;6103681;29;19935;-58
2023/01/31 00:29:46;;;;;;;;;;;20.50;60.40;;;;;;6104656;29;19927;-58
2023/01/31 00:32:49;;;;;;;;;;;20.70;59.90;;;;;;6104900;29;19927;-58
2023/01/31 00:35:51;;;;;;;;;;;20.10;58.70;;;;;;6105047;29;19950;-57
2023/01/31 00:38:53;;;;;;;;;;;20.10;59.40;;;;;;6104600;29;19927;-57
2023/01/31 00:41:55;;;;;;;;;;;20.40;59.50;;;;;;6105064;29;19927;-58
2023/01/31 00:44:56;;;;;;;;;;;20.50;59.00;;;;;;6104835;29;19990;-58
2023/01/31 00:47:58;;;;;;;;;;;19.80;59.20;;;;;;6105287;29;19931;-57
2023/01/31 00:51:00;;;;;;;;;;;19.80;58.70;;;;;;6105014;29;19931;-57
2023/01/31 00:54:01;;;;;;;;;;;20.40;58.70;;;;;;6104702;29;20431;-57
2023/01/31 00:57:03;;;;;;;;;;;20.30;58.60;;;;;;6104461;29;20278;-57
2023/01/31 01:00:05;;;;;;;;;;;20.00;58.70;;;;;;6104661;29;19927;-57
2023/01/31 01:03:07;;;;;;;;;;;20.00;58.80;;;;;;6104561;29;19934;-57
2023/01/31 01:06:09;;;;;;;;;;;20.10;59.10;;;;;;6104311;29;19952;-57
2023/01/31 01:09:10;;;;;;;;;;;20.00;58.30;;;;;;6103164;29;19927;-57
2023/01/31 01:12:12;;;;;;;;;;;20.20;57.80;;;;;;6104376;29;20406;-57
2023/01/31 01:15:13;;;;;;;;;;;20.80;58.80;;;;;;6104218;29;19931;-58
2023/01/31 01:18:15;;;;;;;;;;;19.90;58.90;;;;;;6104253;29;19934;-58
2023/01/31 01:21:18;;;;;;;;;;;20.40;58.80;;;;;;6104229;29;19927;-58
2023/01/31 01:24:19;;;;;;;;;;;20.50;59.10;;;;;;6102902;29;19927;-58
2023/01/31 01:27:21;;;;;;;;;;;20.00;59.20;;;;;;6104349;29;19927;-58
2023/01/31 01:30:23;;;;;;;;;;;20.10;59.10;;;;;;6104026;29;19927;-58
2023/01/31 01:33:24;;;;;;;;;;;20.00;59.00;;;;;;6103907;29;19931;-58
2023/01/31 01:36:26;;;;;;;;;;;19.90;58.70;;;;;;6104382;29;19934;-58
2023/01/31 01:39:29;;;;;;;;;;;20.00;59.30;;;;;;6102526;29;19962;-58
2023/01/31 01:42:33;;;;;;;;;;;20.10;59.60;;;;;;6103833;29;19927;-58
2023/01/31 01:45:34;;;;;;;;;;;20.60;59.60;;;;;;6104052;29;19927;-58
2023/01/31 01:48:35;;;;;;;;;;;19.90;59.70;;;;;;6103768;29;19961;-58
2023/01/31 01:51:38;;;;;;;;;;;19.90;59.20;;;;;;6103646;29;20078;-58
2023/01/31 01:54:44;;;;;;;;;;;20.00;59.60;;;;;;6103947;29;19938;-57
2023/01/31 01:57:47;;;;;;;;;;;19.90;60.10;;;;;;6103453;29;19998;-58
2023/01/31 02:00:49;;;;;;;;;;;20.00;59.80;;;;;;6103049;29;19927;-58
2023/01/31 02:08:29;;;;;;;;;;;20.50;56.70;;;;;;6103374;29;19919;-60
2023/01/31 02:11:31;;;;;;;;;;;20.10;58.00;;;;;;6102148;29;19959;-61
2023/01/31 02:14:32;;;;;;;;;;;21.00;59.50;;;;;;6103364;29;19927;-60
2023/01/31 02:17:34;;;;;;;;;;;19.80;59.50;;;;;;6103186;29;19933;-61
2023/01/31 02:20:50;;;;;;;;;;;20.00;59.60;;;;;;6103319;29;19933;-60
2023/01/31 02:24:05;;;;;;;;;;;19.90;59.20;;;;;;6102234;29;19949;-60
2023/01/31 02:27:14;;;;;;;;;;;19.90;58.50;;;;;;6101967;29;19927;-60
2023/01/31 02:30:31;;;;;;;;;;;19.80;58.10;;;;;;6104428;29;20392;-61
2023/01/31 02:33:36;;;;;;;;;;;20.00;59.00;;;;;;6107207;29;19927;-61
2023/01/31 02:36:44;;;;;;;;;;;19.90;59.90;;;;;;6107208;29;20450;-60
2023/01/31 02:39:52;;;;;;;;;;;19.90;59.30;;;;;;6107138;29;19934;-61
2023/01/31 02:42:59;;;;;;;;;;;20.30;59.80;;;;;;6107345;29;19935;-60
2023/01/31 02:46:05;;;;;;;;;;;20.90;59.60;;;;;;6105875;29;19927;-60
2023/01/31 02:49:12;;;;;;;;;;;20.00;59.40;;;;;;6106845;29;19927;-60
2023/01/31 02:52:16;;;;;;;;;;;20.00;59.30;;;;;;6107503;29;19927;-60
2023/01/31 02:58:36;;;;;;;;;;;19.90;59.20;;;;;;6106656;29;19934;-60
2023/01/31 03:01:40;;;;;;;;;;;20.40;59.10;;;;;;6107020;29;19928;-60
2023/01/31 03:04:43;;;;;;;;;;;19.90;59.50;;;;;;6105522;29;20025;-60
2023/01/31 03:07:47;;;;;;;;;;;20.00;59.20;;;;;;6106338;29;20307;-61
2023/01/31 03:10:57;;;;;;;;;;;20.10;58.30;;;;;;6106672;29;19954;-61
2023/01/31 03:14:04;;;;;;;;;;;20.50;59.40;;;;;;6106488;29;20287;-60
2023/01/31 03:20:28;;;;;;;;;;;20.20;58.40;;;;;;6106613;29;20311;-60
2023/01/31 03:23:33;;;;;;;;;;;20.00;58.40;;;;;;6106432;29;19974;-61
2023/01/31 03:26:35;;;;;;;;;;;20.10;59.20;;;;;;6105160;29;19962;-60
2023/01/31 03:29:38;;;;;;;;;;;20.60;59.60;;;;;;6106075;29;19926;-61
2023/01/31 03:32:44;;;;;;;;;;;19.70;59.10;;;;;;6106301;29;20018;-61
2023/01/31 03:35:48;;;;;;;;;;;20.90;59.80;;;;;;6106141;29;19927;-61
2023/01/31 03:38:54;;;;;;;;;;;20.10;59.40;;;;;;6104623;29;19928;-60
2023/01/31 03:41:56;;;;;;;;;;;19.90;59.20;;;;;;6106357;29;19934;-60
2023/01/31 03:45:03;;;;;;;;;;;19.90;58.80;;;;;;6104893;29;20439;-60
2023/01/31 03:48:09;;;;;;;;;;;19.80;58.40;;;;;;6104645;29;19950;-61
2023/01/31 03:51:17;;;;;;;;;;;20.00;59.10;;;;;;6104650;29;20004;-61
2023/01/31 03:54:20;;;;;;;;;;;19.90;59.20;;;;;;6105640;29;19982;-60
2023/01/31 03:57:23;;;;;;;;;;;19.90;58.70;;;;;;6104540;29;19934;-61
2023/01/31 04:00:25;;;;;;;;;;;20.20;58.70;;;;;;6105861;29;20458;-60
2023/01/31 04:03:33;;;;;;;;;;;20.30;59.40;;;;;;6105605;29;19927;-60
2023/01/31 04:06:35;;;;;;;;;;;20.80;59.40;;;;;;6105498;29;20414;-60
2023/01/31 04:09:37;;;;;;;;;;;19.90;59.00;;;;;;6105674;29;20317;-61
2023/01/31 04:12:38;;;;;;;;;;;20.10;57.70;;;;;;6105576;29;19927;-60
2023/01/31 04:15:40;;;;;;;;;;;19.90;58.50;;;;;;6104162;29;19931;-60
2023/01/31 04:18:41;;;;;;;;;;;20.00;59.40;;;;;;6105461;29;19934;-60
2023/01/31 04:21:43;;;;;;;;;;;20.00;59.00;;;;;;6105236;29;20383;-60
2023/01/31 04:24:44;;;;;;;;;;;19.90;59.00;;;;;;6104032;29;19962;-60
2023/01/31 04:27:45;;;;;;;;;;;20.00;58.90;;;;;;6105401;29;20386;-60
2023/01/31 04:30:51;;;;;;;;;;;20.70;60.00;;;;;;6105141;29;19927;-59
2023/01/31 04:33:52;;;;;;;;;;;20.00;59.30;;;;;;6105067;29;19934;-60
2023/01/31 04:36:54;;;;;;;;;;;19.80;59.20;;;;;;6105580;29;19927;-59
2023/01/31 04:39:55;;;;;;;;;;;20.00;59.80;;;;;;6104954;29;19927;-60
2023/01/31 04:42:56;;;;;;;;;;;20.00;60.10;;;;;;6104847;29;19927;-59
2023/01/31 04:45:57;;;;;;;;;;;19.50;59.60;;;;;;6104631;29;19935;-60
2023/01/31 04:48:59;;;;;;;;;;;19.90;59.20;;;;;;6104837;29;19931;-60
2023/01/31 04:52:01;;;;;;;;;;;19.90;60.00;;;;;;6104485;29;19959;-60
2023/01/31 04:55:02;;;;;;;;;;;20.10;59.80;;;;;;6104141;29;19927;-60
2023/01/31 04:58:04;;;;;;;;;;;19.80;60.00;;;;;;6104674;29;19927;-59
2023/01/31 05:01:08;;;;;;;;;;;20.60;59.90;;;;;;6103921;29;19927;-60
2023/01/31 05:04:11;;;;;;;;;;;20.30;59.60;;;;;;6104354;29;19963;-60
2023/01/31 05:07:12;;;;;;;;;;;20.20;59.10;;;;;;6104578;29;19928;-60
2023/01/31 05:10:14;;;;;;;;;;;20.00;57.80;;;;;;6103973;29;19998;-60
2023/01/31 05:13:16;;;;;;;;;;;19.80;58.80;;;;;;6104110;29;19927;-59
2023/01/31 05:16:17;;;;;;;;;;;19.80;58.60;;;;;;6103806;29;19927;-60
2023/01/31 05:19:19;;;;;;;;;;;19.60;58.50;;;;;;6104146;29;19930;-60
2023/01/31 05:22:21;;;;;;;;;;;19.90;58.90;;;;;;6104014;29;19927;-60
2023/01/31 05:25:22;;;;;;;;;;;19.80;59.10;;;;;;6104269;29;19927;-60
2023/01/31 05:28:25;;;;;;;;;;;19.80;59.30;;;;;;6104011;29;19927;-60
2023/01/31 05:31:26;;;;;;;;;;;20.40;59.00;;;;;;6103697;29;19986;-60
2023/01/31 05:34:31;;;;;;;;;;;20.20;59.00;;;;;;6104126;29;19927;-60
2023/01/31 05:37:34;;;;;;;;;;;20.80;59.40;;;;;;6103943;29;20013;-60
2023/01/31 05:40:35;;;;;;;;;;;19.90;59.30;;;;;;6103721;29;19949;-60
2023/01/31 05:43:36;;;;;;;;;;;19.90;59.10;;;;;;6104040;29;19928;-61
2023/01/31 05:46:38;;;;;;;;;;;19.80;59.30;;;;;;6103836;29;19982;-60
2023/01/31 05:49:39;;;;;;;;;;;19.80;58.90;;;;;;6103577;29;20379;-61
2023/01/31 05:52:41;;;;;;;;;;;19.80;58.60;;;;;;6103827;29;19928;-60
2023/01/31 05:55:43;;;;;;;;;;;20.50;59.40;;;;;;6103414;29;19934;-60
2023/01/31 05:58:49;;;;;;;;;;;20.30;59.20;;;;;;6103426;29;20005;-60
2023/01/31 06:01:50;;;;;;;;;;;19.90;58.80;;;;;;6103744;29;19927;-60
2023/01/31 06:04:52;;;;;;;;;;;20.10;58.40;;;;;;6104137;29;19927;-60
2023/01/31 06:07:54;;;;;;;;;;;20.20;58.60;;;;;;6107543;29;19934;-60
2023/01/31 06:10:55;;;;;;;;;;;20.00;57.70;;;;;;6107965;29;19927;-60
2023/01/31 06:13:57;;;;;;;;;;;19.90;58.90;;;;;;6107454;29;19928;-60
2023/01/31 06:16:59;;;;;;;;;;;20.00;58.90;;;;;;6107448;29;19946;-60
2023/01/31 06:20:01;;;;;;;;;;;21.10;59.40;;;;;;6107636;29;20359;-60
2023/01/31 06:23:03;;;;;;;;;;;20.20;58.60;;;;;;6107515;29;19927;-60
2023/01/31 06:26:05;;;;;;;;;;;21.00;59.50;;;;;;6107249;29;19934;-60
2023/01/31 06:29:07;;;;;;;;;;;19.90;58.50;;;;;;6107437;29;19927;-59
2023/01/31 06:32:08;;;;;;;;;;;19.90;58.90;;;;;;6107162;29;19935;-60
2023/01/31 06:35:09;;;;;;;;;;;20.00;58.80;;;;;;6107088;29;19958;-59
2023/01/31 06:38:12;;;;;;;;;;;20.60;59.00;;;;;;6107423;29;19927;-60
2023/01/31 06:41:13;;;;;;;;;;;20.10;58.80;;;;;;6106639;29;20302;-60
2023/01/31 06:44:14;;;;;;;;;;;20.60;59.20;;;;;;6106533;29;19927;-59
2023/01/31 06:47:16;;;;;;;;;;;19.80;58.40;;;;;;6106871;29;19949;-59
2023/01/31 06:50:17;;;;;;;;;;;20.90;58.20;;;;;;6106436;29;19927;-59
2023/01/31 06:53:19;;;;;;;;;;;19.80;57.50;;;;;;6106592;29;19935;-59
2023/01/31 06:56:21;;;;;;;;;;;20.50;57.70;;;;;;6106835;29;19927;-58
2023/01/31 06:59:22;;;;;;;;;;;19.90;58.10;;;;;;6106590;29;19935;-59
2023/01/31 07:02:23;;;;;;;;;;;20.40;58.60;;;;;;6106006;29;19975;-59
2023/01/31 07:05:24;;;;;;;;;;;20.10;57.90;;;;;;6106613;29;19935;-60
2023/01/31 07:08:26;;;;;;;;;;;21.00;59.10;;;;;;6106615;29;19996;-60
2023/01/31 07:11:28;;;;;;;;;;;20.10;57.90;;;;;;6105901;29;19934;-59
2023/01/31 07:14:29;;;;;;;;;;;20.40;58.40;;;;;;6106453;29;20315;-59
2023/01/31 07:17:32;;;;;;;;;;;19.90;58.10;;;;;;6105595;29;19931;-59
2023/01/31 07:20:33;;;;;;;;;;;20.70;58.50;;;;;;6105855;29;19979;-59
2023/01/31 07:23:35;;;;;;;;;;;20.50;58.10;;;;;;6106486;29;19955;-59
2023/01/31 07:26:36;;;;;;;;;;;20.30;57.40;;;;;;6106242;29;20006;-59
2023/01/31 07:29:38;;;;;;;;;;;20.00;57.60;;;;;;6105768;29;19927;-59
2023/01/31 07:32:39;;;;;;;;;;;20.60;57.20;;;;;;6105986;29;19981;-58
2023/01/31 07:35:40;;;;;;;;;;;20.00;57.30;;;;;;6105579;29;19927;-59
2023/01/31 07:38:42;;;;;;;;;;;21.20;57.70;;;;;;6105441;29;19979;-59
2023/01/31 07:41:44;;;;;;;;;;;20.20;58.40;;;;;;6105043;29;19927;-59
2023/01/31 07:44:45;;;;;;;;;;;20.60;57.90;;;;;;6106037;29;19927;-58
2023/01/31 07:47:46;;;;;;;;;;;20.70;58.10;;;;;;6105553;29;19939;-58
2023/01/31 07:50:48;;;;;;;;;;;21.30;57.70;;;;;;6105108;29;19927;-59
2023/01/31 07:53:50;;;;;;;;;;;20.30;57.50;;;;;;6105266;29;19935;-58
2023/01/31 07:56:52;;;;;;;;;;;20.70;57.90;;;;;;6105036;29;20383;-57
2023/01/31 07:59:53;;;;;;;;;;;20.40;57.50;;;;;;6104429;29;19962;-58
2023/01/31 08:06:11;;;;;;;;;;;20.30;57.70;;;;;;6104713;29;20382;-59
2023/01/31 08:09:13;;;;;;;;;;;21.30;58.50;;;;;;6103509;29;19927;-58
2023/01/31 08:12:15;;;;;;;;;;;20.40;57.50;;;;;;6105318;29;20371;-59
2023/01/31 08:15:16;;;;;;;;;;;20.80;57.10;;;;;;6104891;29;20319;-58
2023/01/31 08:18:17;;;;;;;;;;;20.70;57.40;;;;;;6104763;29;20267;-59
2023/01/31 08:21:19;;;;;;;;;;;21.30;58.60;;;;;;6105118;29;20021;-58
2023/01/31 08:24:21;;;;;;;;;;;20.40;57.70;;;;;;6104923;29;19950;-59
2023/01/31 08:27:22;;;;;;;;;;;20.90;57.70;;;;;;6103518;29;19959;-58
2023/01/31 08:30:23;;;;;;;;;;;20.20;57.40;;;;;;6105017;29;19927;-59
2023/01/31 08:33:24;;;;;;;;;;;21.00;58.20;;;;;;6104688;29;19927;-57
2023/01/31 08:36:30;;;;;;;;;;;20.30;58.00;;;;;;6104044;29;19958;-58
2023/01/31 08:39:33;;;;;;;;;;;21.00;58.30;;;;;;6104243;29;20022;-59
2023/01/31 08:42:34;;;;;;;;;;;20.20;57.20;;;;;;6104129;29;19928;-58
2023/01/31 08:45:36;;;;;;;;;;;21.30;58.40;;;;;;6104131;29;20324;-58
2023/01/31 08:48:37;;;;;;;;;;;20.50;57.30;;;;;;6104663;29;19935;-59
2023/01/31 08:51:39;;;;;;;;;;;21.00;57.60;;;;;;6104360;29;19927;-59
2023/01/31 08:54:41;;;;;;;;;;;20.60;57.60;;;;;;6104077;29;19931;-59
2023/01/31 08:57:43;;;;;;;;;;;21.20;58.00;;;;;;6104825;29;19934;-58
2023/01/31 09:01:00;;;;;;;;;;;20.40;57.10;;;;;;6104056;29;19927;-58
2023/01/31 09:04:02;;;;;;;;;;;21.40;58.10;;;;;;6103198;29;19973;-59
2023/01/31 09:07:03;;;;;;;;;;;20.40;58.00;;;;;;6104387;29;20280;-57
2023/01/31 09:10:05;;;;;;;;;;;22.60;58.10;;;;;;6104319;29;19935;-59
2023/01/31 09:13:06;;;;;;;;;;;20.80;58.10;;;;;;6103760;29;19998;-58
2023/01/31 09:16:09;;;;;;;;;;;21.10;57.40;;;;;;6104079;29;19979;-58
2023/01/31 09:19:12;;;;;;;;;;;20.30;57.30;;;;;;6103582;29;21577;-59
2023/01/31 09:22:13;;;;;;;;;;;21.10;56.90;;;;;;6103820;29;19982;-58
2023/01/31 09:25:15;;;;;;;;;;;20.40;56.50;;;;;;6103712;29;19933;-57
2023/01/31 09:28:16;;;;;;;;;;;21.20;57.70;;;;;;6104083;29;19927;-59
2023/01/31 09:31:19;;;;;;;;;;;20.50;57.30;;;;;;6103756;29;19927;-60
2023/01/31 09:34:21;;;;;;;;;;;20.80;57.10;;;;;;6102296;29;20279;-59
2023/01/31 09:37:22;;;;;;;;;;;20.90;56.60;;;;;;6103388;29;19934;-59
2023/01/31 09:40:25;;;;;;;;;;;21.30;57.50;;;;;;6103056;29;19959;-58
2023/01/31 09:43:29;;;;;;;;;;;20.50;57.40;;;;;;6103042;29;19928;-57
2023/01/31 09:46:32;;;;;;;;;;;21.20;57.00;;;;;;6103390;29;20423;-58
2023/01/31 09:49:41;;;;;;;;;;;20.70;56.70;;;;;;6102777;29;19943;-58
2023/01/31 09:52:42;;;;;;;;;;;21.10;57.50;;;;;;6103529;29;19958;-58
2023/01/31 09:55:48;;;;;;;;;;;20.70;56.90;;;;;;6103598;29;19934;-60
2023/01/31 09:58:54;;;;;;;;;;;20.80;56.70;;;;;;6103032;29;20263;-59
2023/01/31 10:01:58;;;;;;;;;;;20.90;56.80;;;;;;6101776;29;19931;-60
2023/01/31 10:05:05;;;;;;;;;;;21.40;57.20;;;;;;6103163;29;19931;-59
2023/01/31 10:08:12;;;;;;;;;;;20.70;57.00;;;;;;6102907;29;19982;-58
2023/01/31 10:11:16;;;;;;;;;;;20.60;55.60;;;;;;6101559;29;20336;-61
2023/01/31 10:14:21;;;;;;;;;;;20.50;56.50;;;;;;6101642;29;19934;-58
2023/01/31 10:17:25;;;;;;;;;;;21.40;57.10;;;;;;6101636;29;19927;-59
2023/01/31 10:20:30;;;;;;;;;;;20.50;56.80;;;;;;6102316;29;19950;-58
2023/01/31 10:23:34;;;;;;;;;;;20.30;56.60;;;;;;6103166;29;19927;-58
2023/01/31 10:26:38;;;;;;;;;;;20.70;57.00;;;;;;6101110;29;19958;-60
2023/01/31 10:29:42;;;;;;;;;;;21.40;56.70;;;;;;6102269;29;19970;-60
2023/01/31 10:32:47;;;;;;;;;;;21.20;56.70;;;;;;6103166;29;20383;-58
2023/01/31 10:35:51;;;;;;;;;;;21.20;56.80;;;;;;6101748;29;19959;-58
2023/01/31 10:38:57;;;;;;;;;;;20.80;57.00;;;;;;6102550;29;19934;-57
2023/01/31 10:42:05;;;;;;;;;;;21.60;57.60;;;;;;6101013;29;19997;-57
2023/01/31 10:45:12;;;;;;;;;;;20.40;56.60;;;;;;6102666;29;19927;-57
2023/01/31 10:48:14;;;;;;;;;;;21.60;57.00;;;;;;6101081;29;19927;-58
2023/01/31 10:51:26;;;;;;;;;;;20.80;57.30;;;;;;6103466;29;20414;-57
2023/01/31 10:54:34;;;;;;;;;;;21.10;57.20;;;;;;6106849;29;20419;-59
2023/01/31 10:57:36;;;;;;;;;;;20.40;56.70;;;;;;6106575;29;20402;-57
2023/01/31 11:00:37;;;;;;;;;;;21.50;57.50;;;;;;6105859;29;20006;-56
2023/01/31 11:03:39;;;;;;;;;;;20.90;56.70;;;;;;6106271;29;19971;-57
2023/01/31 11:06:40;;;;;;;;;;;21.60;56.80;;;;;;6106108;29;19931;-57
2023/01/31 11:09:42;;;;;;;;;;;20.80;55.80;;;;;;6105917;29;19927;-58
2023/01/31 11:12:51;;;;;;;;;;;21.20;56.50;;;;;;6105328;29;19927;-56
2023/01/31 11:15:54;;;;;;;;;;;20.90;57.20;;;;;;6105843;29;19927;-57
2023/01/31 11:18:56;;;;;;;;;;;21.00;57.80;;;;;;6105847;29;19934;-57
2023/01/31 11:21:58;;;;;;;;;;;20.80;57.00;;;;;;6105882;29;19955;-58
2023/01/31 11:25:00;;;;;;;;;;;21.60;57.70;;;;;;6105849;29;19931;-58
2023/01/31 11:28:14;;;;;;;;;;;20.70;57.00;;;;;;6105305;29;19928;-58
2023/01/31 11:31:18;;;;;;;;;;;21.60;57.40;;;;;;6105366;29;20399;-58
2023/01/31 11:34:22;;;;;;;;;;;21.20;56.90;;;;;;6105740;29;19939;-58
2023/01/31 11:37:23;;;;;;;;;;;21.30;56.60;;;;;;6105326;29;20380;-57
2023/01/31 11:40:28;;;;;;;;;;;21.00;57.20;;;;;;6105953;29;19979;-57
2023/01/31 11:43:30;;;;;;;;;;;21.20;57.20;;;;;;6105484;29;19934;-57
2023/01/31 11:46:41;;;;;;;;;;;20.80;57.30;;;;;;6105293;29;20387;-57
2023/01/31 11:49:42;;;;;;;;;;;21.40;55.30;;;;;;6105201;29;19927;-57
2023/01/31 11:52:44;;;;;;;;;;;20.90;56.20;;;;;;6105651;29;19970;-57
2023/01/31 11:55:47;;;;;;;;;;;21.00;55.30;;;;;;6105254;29;20025;-57
2023/01/31 11:58:50;;;;;;;;;;;20.80;56.70;;;;;;6104959;29;19934;-57
2023/01/31 12:01:52;;;;;;;;;;;21.50;56.10;;;;;;6104555;29;19927;-57
2023/01/31 12:04:54;;;;;;;;;;;21.00;55.10;;;;;;6104609;29;19946;-57
2023/01/31 12:07:56;;;;;;;;;;;21.70;56.50;;;;;;6104877;29;20288;-57
2023/01/31 12:10:57;;;;;;;;;;;21.00;55.10;;;;;;6104904;29;19927;-57
2023/01/31 12:14:01;;;;;;;;;;;21.80;56.00;;;;;;6103447;29;19927;-56
2023/01/31 12:17:03;;;;;;;;;;;20.90;55.60;;;;;;6104731;29;20391;-57
2023/01/31 12:20:09;;;;;;;;;;;21.40;55.40;;;;;;6105525;29;20040;-56
2023/01/31 12:23:34;;;;;;;;;;;21.00;55.80;;;;;;6104706;29;19927;-58
2023/01/31 12:26:39;;;;;;;;;;;21.40;55.50;;;;;;6104605;29;19977;-59
2023/01/31 12:29:47;;;;;;;;;;;21.10;54.80;;;;;;6104228;29;19928;-58
2023/01/31 12:32:56;;;;;;;;;;;22.00;56.10;;;;;;6104157;29;19931;-56
2023/01/31 12:36:07;;;;;;;;;;;21.40;56.40;;;;;;6104303;29;20392;-56
2023/01/31 12:39:14;;;;;;;;;;;21.60;55.80;;;;;;6104233;29;19927;-58
2023/01/31 12:42:23;;;;;;;;;;;20.80;55.30;;;;;;6103050;29;20017;-58
2023/01/31 12:45:39;;;;;;;;;;;21.00;55.70;;;;;;6103971;29;19978;-57
2023/01/31 12:48:48;;;;;;;;;;;21.00;54.30;;;;;;6104446;29;19942;-58
2023/01/31 12:51:58;;;;;;;;;;;21.70;56.00;;;;;;6103907;29;19934;-57
2023/01/31 12:55:06;;;;;;;;;;;21.30;55.50;;;;;;6103885;29;20562;-58
2023/01/31 12:58:15;;;;;;;;;;;22.00;56.50;;;;;;6104205;29;19928;-57
2023/01/31 13:01:20;;;;;;;;;;;20.90;55.80;;;;;;6103822;29;19934;-58
2023/01/31 13:04:27;;;;;;;;;;;21.50;55.60;;;;;;6104393;29;19994;-60
2023/01/31 13:07:32;;;;;;;;;;;21.30;55.50;;;;;;6104029;29;20292;-60
2023/01/31 13:10:35;;;;;;;;;;;21.30;54.40;;;;;;6103681;29;19971;-61
2023/01/31 13:13:39;;;;;;;;;;;21.30;55.40;;;;;;6103826;29;19938;-60
2023/01/31 13:16:42;;;;;;;;;;;21.60;55.60;;;;;;6103917;29;19938;-58
2023/01/31 13:19:47;;;;;;;;;;;21.30;55.70;;;;;;6103463;29;20388;-57
2023/01/31 13:22:53;;;;;;;;;;;21.50;55.30;;;;;;6102350;29;20304;-57
2023/01/31 13:25:56;;;;;;;;;;;21.00;54.40;;;;;;6103341;29;19927;-57
2023/01/31 13:29:00;;;;;;;;;;;21.70;54.40;;;;;;6103535;29;19927;-59
2023/01/31 13:32:05;;;;;;;;;;;21.00;54.10;;;;;;6103422;29;19927;-60
2023/01/31 13:35:13;;;;;;;;;;;22.10;54.80;;;;;;6103376;29;19927;-59
2023/01/31 13:38:17;;;;;;;;;;;21.00;54.40;;;;;;6103464;29;20295;-58
2023/01/31 13:41:22;;;;;;;;;;;21.60;56.00;;;;;;6103437;29;20022;-58
2023/01/31 13:44:24;;;;;;;;;;;21.10;55.60;;;;;;6103521;29;20295;-61
2023/01/31 13:47:29;;;;;;;;;;;21.50;55.00;;;;;;6103414;29;19934;-59
2023/01/31 13:50:33;;;;;;;;;;;21.10;56.20;;;;;;6102096;29;19931;-58
2023/01/31 13:53:35;;;;;;;;;;;22.00;56.70;;;;;;6101696;29;19934;-59
2023/01/31 13:56:38;;;;;;;;;;;21.30;55.50;;;;;;6103135;29;20407;-59
2023/01/31 13:59:39;;;;;;;;;;;21.70;56.00;;;;;;6103082;29;19963;-58
2023/01/31 14:02:58;;;;;;;;;;;21.60;56.30;;;;;;6102944;29;19997;-58
2023/01/31 14:06:00;;;;;;;;;;;21.80;56.60;;;;;;6103465;29;20402;-55
2023/01/31 14:09:02;;;;;;;;;;;20.90;55.30;;;;;;6102814;29;19935;-56
2023/01/31 14:12:18;;;;;;;;;;;21.40;55.00;;;;;;6103343;29;19934;-54
2023/01/31 14:15:34;;;;;;;;;;;21.30;55.90;;;;;;6101753;29;19928;-54
2023/01/31 14:18:41;;;;;;;;;;;22.10;56.70;;;;;;6101745;29;20056;-54
2023/01/31 14:21:43;;;;;;;;;;;21.60;56.40;;;;;;6102739;29;20443;-54
2023/01/31 14:24:58;;;;;;;;;;;21.70;56.50;;;;;;6102541;29;19994;-55
2023/01/31 14:28:01;;;;;;;;;;;21.50;56.40;;;;;;6106448;29;19938;-51
2023/01/31 14:31:10;;;;;;;;;;;21.50;55.80;;;;;;6106993;29;19927;-54
2023/01/31 14:34:16;;;;;;;;;;;21.20;56.00;;;;;;6106849;29;19927;-53
2023/01/31 14:37:25;;;;;;;;;;;22.10;56.50;;;;;;6107316;29;20412;-54
2023/01/31 14:40:27;;;;;;;;;;;21.30;55.30;;;;;;6121012;29;19970;-52
2023/01/31 14:43:33;;;;;;;;;;;21.70;55.90;;;;;;6106718;29;19928;-54
2023/01/31 14:46:40;;;;;;;;;;;21.00;56.20;;;;;;6121139;29;20307;-55
2023/01/31 14:49:49;;;;;;;;;;;21.60;56.60;;;;;;6105116;29;20372;-54
2023/01/31 14:53:03;;;;;;;;;;;21.40;56.30;;;;;;6106489;29;20395;-54
2023/01/31 14:56:13;;;;;;;;;;;21.90;56.60;;;;;;6106461;29;20014;-54
2023/01/31 14:59:21;;;;;;;;;;;21.30;56.20;;;;;;6106441;29;19959;-54
2023/01/31 15:02:34;;;;;;;;;;;22.00;57.20;;;;;;6105898;29;20026;-55
2023/01/31 15:05:41;;;;;;;;;;;21.20;56.30;;;;;;6106208;29;19927;-54
2023/01/31 15:08:44;;;;;;;;;;;21.90;56.80;;;;;;6106441;29;20348;-53
2023/01/31 15:11:46;;;;;;;;;;;21.40;55.80;;;;;;6105949;29;19946;-55
2023/01/31 15:14:48;;;;;;;;;;;21.90;56.40;;;;;;6106078;29;20308;-53
2023/01/31 15:17:52;;;;;;;;;;;21.60;56.60;;;;;;6106363;29;19978;-55
2023/01/31 15:20:56;;;;;;;;;;;22.20;56.60;;;;;;6105655;29;19934;-53
2023/01/31 15:23:59;;;;;;;;;;;21.20;56.20;;;;;;6105928;29;19934;-53
2023/01/31 15:27:01;;;;;;;;;;;21.90;56.90;;;;;;6105796;29;19927;-51
2023/01/31 15:30:05;;;;;;;;;;;21.70;56.90;;;;;;6105701;29;19927;-52
2023/01/31 15:33:12;;;;;;;;;;;22.10;56.70;;;;;;6105953;29;20328;-53
2023/01/31 15:36:18;;;;;;;;;;;21.00;56.00;;;;;;6105583;29;19928;-54
2023/01/31 15:39:22;;;;;;;;;;;21.70;56.10;;;;;;6105088;29;19977;-53
2023/01/31 15:42:24;;;;;;;;;;;21.30;56.40;;;;;;6105580;29;20390;-52
2023/01/31 15:45:26;;;;;;;;;;;22.00;56.90;;;;;;6103863;29;19928;-54
2023/01/31 15:48:28;;;;;;;;;;;21.20;56.40;;;;;;6103921;29;19927;-52
2023/01/31 15:51:30;;;;;;;;;;;22.10;56.90;;;;;;6105592;29;19927;-53
2023/01/31 15:54:31;;;;;;;;;;;21.20;56.60;;;;;;6105094;29;19991;-54
2023/01/31 15:57:35;;;;;;;;;;;21.50;56.80;;;;;;6105588;29;19934;-54
2023/01/31 16:00:37;;;;;;;;;;;21.20;55.90;;;;;;6105425;29;19927;-53
2023/01/31 16:03:40;;;;;;;;;;;21.80;56.70;;;;;;6105719;29;19931;-55
2023/01/31 16:06:42;;;;;;;;;;;21.10;56.40;;;;;;6105090;29;20380;-54
2023/01/31 16:09:43;;;;;;;;;;;21.40;55.40;;;;;;6105110;29;19935;-53
2023/01/31 16:12:47;;;;;;;;;;;21.30;56.00;;;;;;6104965;29;20296;-55
2023/01/31 16:15:48;;;;;;;;;;;21.80;56.80;;;;;;6104744;29;20349;-54
2023/01/31 16:18:50;;;;;;;;;;;21.50;56.70;;;;;;6105213;29;19934;-54
2023/01/31 16:21:53;;;;;;;;;;;21.60;56.30;;;;;;6104967;29;19927;-54
2023/01/31 16:24:55;;;;;;;;;;;21.20;55.90;;;;;;6104677;29;19927;-52
2023/01/31 16:28:01;;;;;;;;;;;22.20;56.30;;;;;;6103288;29;20304;-55
2023/01/31 16:31:03;;;;;;;;;;;21.30;55.40;;;;;;6104569;29;19934;-55
2023/01/31 16:34:08;;;;;;;;;;;21.70;55.80;;;;;;6104339;29;19927;-51
2023/01/31 16:37:11;;;;;;;;;;;21.40;56.10;;;;;;6104886;29;19958;-54
2023/01/31 16:40:17;;;;;;;;;;;22.00;56.30;;;;;;6104517;29;19927;-57
2023/01/31 16:43:20;;;;;;;;;;;21.10;55.60;;;;;;6104270;29;19955;-56
2023/01/31 16:46:36;;;;;;;;;;;22.40;56.70;;;;;;6104239;29;19927;-57
2023/01/31 16:49:37;;;;;;;;;;;21.10;55.80;;;;;;6104039;29;19931;-57
2023/01/31 16:52:39;;;;;;;;;;;21.80;56.40;;;;;;6104780;29;19927;-58
2023/01/31 16:55:41;;;;;;;;;;;21.30;57.00;;;;;;6104046;29;19938;-57
2023/01/31 16:58:45;;;;;;;;;;;21.90;56.90;;;;;;6104465;29;19959;-57
2023/01/31 17:01:53;;;;;;;;;;;21.10;56.80;;;;;;6102796;29;19927;-57
2023/01/31 17:04:56;;;;;;;;;;;22.00;57.00;;;;;;6104098;29;19927;-59
2023/01/31 17:07:58;;;;;;;;;;;21.10;56.50;;;;;;6102911;29;19927;-56
2023/01/31 17:11:00;;;;;;;;;;;21.40;55.70;;;;;;6103840;29;19927;-53
2023/01/31 17:14:01;;;;;;;;;;;21.30;56.40;;;;;;6104296;29;20018;-57
2023/01/31 17:17:02;;;;;;;;;;;22.00;56.80;;;;;;6104280;29;19934;-60
2023/01/31 17:20:08;;;;;;;;;;;21.60;56.60;;;;;;6103861;29;19959;-58
2023/01/31 17:23:11;;;;;;;;;;;22.00;56.90;;;;;;6103829;29;20380;-59
2023/01/31 17:26:14;;;;;;;;;;;21.10;56.20;;;;;;6102817;29;19927;-61
2023/01/31 17:29:15;;;;;;;;;;;21.90;57.00;;;;;;6104047;29;19927;-61
2023/01/31 17:32:17;;;;;;;;;;;21.10;56.70;;;;;;6103905;29;20021;-60
2023/01/31 17:35:20;;;;;;;;;;;22.10;57.10;;;;;;6102941;29;19966;-61
2023/01/31 17:38:22;;;;;;;;;;;21.20;56.00;;;;;;6102471;29;20372;-60
2023/01/31 17:41:24;;;;;;;;;;;21.50;56.00;;;;;;6103614;29;20398;-60
2023/01/31 17:44:25;;;;;;;;;;;21.60;56.70;;;;;;6103889;29;19963;-60
2023/01/31 17:47:27;;;;;;;;;;;21.80;57.00;;;;;;6103593;29;19927;-60
2023/01/31 17:50:28;;;;;;;;;;;21.70;56.50;;;;;;6103653;29;19927;-60
2023/01/31 17:53:30;;;;;;;;;;;21.70;57.10;;;;;;6103816;29;19983;-60
2023/01/31 17:56:41;;;;;;;;;;;21.30;56.90;;;;;;6103790;29;19931;-60
2023/01/31 17:59:42;;;;;;;;;;;21.90;56.70;;;;;;6103145;29;19975;-59
2023/01/31 18:02:44;;;;;;;;;;;21.30;57.10;;;;;;6103268;29;19927;-60